AZP weather

Atizapan De Zaragoza Airport
Mexico, Mexico

Public forecast

Using degrees Celsius for public forecast. Weather courtesy of forecast.io.

METAR (pilot weather report)

Closest report is Licenciado Benito Juarez International Airport, 14.8 nm (27.4 km) SE. Retrieved 2019/04/20 09:40 UTC (11 minutes ago):

MMMX 200940Z 07003KT 10SM SKC 11/M03 A3039 NOSIG RMK HZY CI

TAF (pilot weather forecast)

Closest forecast is Licenciado Benito Juarez International Airport, 14.8 nm (27.4 km) SE. Retrieved 2019/04/20 06:35 UTC (3 hours ago):

TAF MMMX 200431Z 2006/2112 03008KT P6SM SCT020 SCT080 TX25/2021Z TN14/2012Z FM202100 12010KT P6SM SCT250 FM210300 13005KT P6SM SKC